Terminal Aerodrome Forecast
Issued by NWS Wilmington, OH

Current Version | Previous Version | Text Only | Print | Product List | Glossary On
Versions: 1 2 3 4 5 6 7 8 9 10 11 12 13 14 15 16 17 18 19 20
000
FTUS41 KILN 050541
TAFILN
TAF
KILN 050541Z 0506/0606 33004KT P6SM BKN250
     FM051200 02003KT P6SM SCT150
     FM051700 34004KT P6SM FEW050 SCT120
     FM060000 05006KT P6SM FEW050 BKN120=

USA.gov is the U.S. government's official web portal to all federal, state and local government web resources and services.